Weather reports worldwide

Advertisment
Reggio Calabria, Italy (16422): temperature & dewpoint: 10.07.2018 18:00:00 - 16.07.2018 18:00:00 (CEST)Reggio Calabria, Italy (16422): wind speed: 10.07.2018 18:00:00 - 16.07.2018 18:00:00 (CEST)Reggio Calabria, Italy (16422): wind direction: 10.07.2018 18:00:00 - 16.07.2018 18:00:00 (CEST)Reggio Calabria, Italy (16422): visibility: 10.07.2018 18:00:00 - 16.07.2018 18:00:00 (CEST)
Date & Time tt [°C] td [°C] ff [km/h] ff [kn] dd vv [km]
16.07.2018 18:00:00 - - - - - -
16.07.2018 17:00:00 - - - - - -
16.07.2018 16:00:00 33,0 21,0 22 12 N 10
16.07.2018 15:00:00 33,0 17,0 21 11 N 10
16.07.2018 14:00:00 31,0 21,0 28 15 NNW 10
16.07.2018 13:00:00 31,0 22,0 26 14 N 10
16.07.2018 12:00:00 30,0 21,0 31 17 NNW 10
16.07.2018 11:00:00 30,0 23,0 28 15 N 10
16.07.2018 10:00:00 29,0 22,0 35 19 N 10
16.07.2018 09:00:00 28,0 22,0 26 14 N 10
16.07.2018 08:00:00 27,0 22,0 18 10 N 10
16.07.2018 07:00:00 26,0 20,0 11 6 NNE 10
16.07.2018 06:00:00 25,0 21,0 11 6 NNE 10
16.07.2018 05:00:00 - - - - - -
16.07.2018 04:00:00 - - - - - -
16.07.2018 03:00:00 - - - - - -
16.07.2018 02:00:00 - - - - - -
16.07.2018 01:00:00 - - - - - -
16.07.2018 00:00:00 28,0 22,0 18 10 N 10
15.07.2018 23:00:00 28,0 21,0 21 11 N 10
15.07.2018 22:00:00 28,0 21,0 15 8 N 10
15.07.2018 21:00:00 28,0 21,0 18 10 N 10
15.07.2018 20:00:00 28,0 21,0 24 13 N 10
15.07.2018 19:00:00 29,0 21,0 31 17 N 10
15.07.2018 18:00:00 30,0 21,0 29 16 N 10
15.07.2018 17:00:00 31,0 21,0 26 14 N 10
15.07.2018 16:00:00 31,0 22,0 28 15 N 10
15.07.2018 15:00:00 30,0 22,0 34 18 N 10
15.07.2018 14:00:00 31,0 22,0 29 16 N 10
15.07.2018 13:00:00 32,0 22,0 26 14 N 10
15.07.2018 12:00:00 31,0 22,0 26 14 N 10
15.07.2018 11:00:00 30,0 23,0 28 15 N 10
15.07.2018 10:00:00 30,0 23,0 26 14 N 10
15.07.2018 09:00:00 29,0 22,0 28 15 N 10
15.07.2018 08:00:00 29,0 21,0 21 11 N 10
15.07.2018 07:00:00 27,0 19,0 21 11 N 10
15.07.2018 06:00:00 27,0 17,0 18 10 NNE 10
15.07.2018 05:00:00 - - - - - -
15.07.2018 04:00:00 - - - - - -
15.07.2018 03:00:00 - - - - - -
15.07.2018 02:00:00 - - - - - -
15.07.2018 01:00:00 - - - - - -
15.07.2018 00:00:00 26,0 15,0 4 2 SE 10
14.07.2018 23:00:00 26,0 16,0 2 1 - 10
14.07.2018 22:00:00 26,0 17,0 5 3 SSE 10
14.07.2018 21:00:00 26,0 17,0 9 5 SSE 10
14.07.2018 20:00:00 27,0 20,0 15 8 SSW 10
14.07.2018 19:00:00 27,0 23,0 13 7 SSW 10
14.07.2018 18:00:00 28,0 23,0 13 7 SSW 10
14.07.2018 17:00:00 29,0 22,0 11 6 SSW 10
14.07.2018 16:00:00 29,0 21,0 13 7 SW 10
14.07.2018 15:00:00 29,0 21,0 13 7 SW 10
14.07.2018 14:00:00 30,0 20,0 18 10 SW 10
14.07.2018 13:00:00 35,0 14,0 16 9 N 10
14.07.2018 12:00:00 34,0 14,0 16 9 N 10
14.07.2018 11:00:00 32,0 16,0 21 11 N 10
14.07.2018 10:00:00 30,0 21,0 16 9 N 10
14.07.2018 09:00:00 29,0 15,0 11 6 N 10
14.07.2018 08:00:00 28,0 13,0 4 2 - 10
14.07.2018 07:00:00 26,0 12,0 13 7 N 10
14.07.2018 06:00:00 24,0 11,0 8 4 NNE 10
14.07.2018 05:00:00 - - - - - -
14.07.2018 04:00:00 - - - - - -
14.07.2018 03:00:00 - - - - - -
14.07.2018 02:00:00 - - - - - -
14.07.2018 01:00:00 25,0 12,0 11 6 N 10
14.07.2018 00:00:00 27,0 17,0 18 10 N 10
13.07.2018 23:00:00 26,0 19,0 21 11 N 10
13.07.2018 22:00:00 27,0 16,0 21 11 N 10
13.07.2018 21:00:00 28,0 17,0 22 12 N 10
13.07.2018 20:00:00 29,0 14,0 21 11 N 10
13.07.2018 19:00:00 31,0 12,0 24 13 N 10
13.07.2018 18:00:00 31,0 15,0 22 12 N 10
13.07.2018 17:00:00 32,0 13,0 26 14 N 10
13.07.2018 16:00:00 33,0 13,0 26 14 N 10
13.07.2018 15:00:00 35,0 13,0 24 13 N 10
13.07.2018 14:00:00 34,0 14,0 28 15 N 10
13.07.2018 13:00:00 34,0 14,0 22 12 N 10
13.07.2018 12:00:00 32,0 15,0 24 13 N 10
13.07.2018 11:00:00 31,0 16,0 22 12 N 10
13.07.2018 10:00:00 30,0 16,0 21 11 N 10
13.07.2018 09:00:00 29,0 19,0 21 11 N 10
13.07.2018 08:00:00 27,0 21,0 16 9 N 10
13.07.2018 07:00:00 25,0 14,0 11 6 N 10
13.07.2018 06:00:00 23,0 15,0 9 5 N 10
13.07.2018 05:00:00 - - - - - -
13.07.2018 04:00:00 - - - - - -
13.07.2018 03:00:00 - - - - - -
13.07.2018 02:00:00 - - - - - -
13.07.2018 01:00:00 - - - - - -
13.07.2018 00:00:00 25,0 16,0 15 8 N 10
12.07.2018 23:00:00 25,0 15,0 9 5 NE 10
12.07.2018 22:00:00 25,0 19,0 9 5 N 10
12.07.2018 21:00:00 27,0 18,0 18 10 NNW 10
12.07.2018 20:00:00 28,0 17,0 21 11 N 10
12.07.2018 19:00:00 29,0 16,0 22 12 N 10
12.07.2018 18:00:00 30,0 15,0 24 13 NNW 10
12.07.2018 17:00:00 31,0 15,0 24 13 NNW 10
12.07.2018 16:00:00 32,0 13,0 28 15 N 10
12.07.2018 15:00:00 31,0 13,0 29 16 N 10
12.07.2018 14:00:00 32,0 14,0 26 14 N 10
12.07.2018 13:00:00 32,0 13,0 26 14 N 10
12.07.2018 12:00:00 30,0 19,0 22 12 NNW 10
12.07.2018 11:00:00 28,0 21,0 26 14 N 10
12.07.2018 10:00:00 27,0 21,0 26 14 N 10
12.07.2018 09:00:00 27,0 20,0 22 12 N 10
12.07.2018 08:00:00 25,0 21,0 24 13 N 10
12.07.2018 07:00:00 25,0 19,0 21 11 N 10
12.07.2018 06:00:00 24,0 16,0 21 11 N 10
12.07.2018 05:00:00 - - - - - -
12.07.2018 04:00:00 - - - - - -
12.07.2018 03:00:00 - - - - - -
12.07.2018 02:00:00 - - - - - -
12.07.2018 01:00:00 - - - - - -
12.07.2018 00:00:00 24,0 8,0 9 5 NE 10
11.07.2018 23:00:00 24,0 11,0 11 6 NE 10
11.07.2018 22:00:00 25,0 14,0 9 5 NNE 10
11.07.2018 21:00:00 25,0 19,0 21 11 N 10
11.07.2018 20:00:00 26,0 19,0 18 10 N 10
11.07.2018 19:00:00 29,0 14,0 18 10 N 10
11.07.2018 18:00:00 28,0 19,0 16 9 SSW 10
11.07.2018 17:00:00 33,0 8,0 21 11 N 10
11.07.2018 16:00:00 33,0 7,0 22 12 N 10
11.07.2018 15:00:00 33,0 9,0 21 11 N 10
11.07.2018 14:00:00 32,0 11,0 26 14 N 10
11.07.2018 13:00:00 31,0 11,0 24 13 N 10
11.07.2018 12:00:00 31,0 12,0 22 12 N 10
11.07.2018 11:00:00 30,0 15,0 22 12 N 10
11.07.2018 10:00:00 29,0 17,0 16 9 NNW 10
11.07.2018 09:00:00 28,0 14,0 9 5 NNW 10
11.07.2018 08:00:00 26,0 12,0 5 3 NNW 10
11.07.2018 07:00:00 23,0 12,0 4 2 NNE 10
11.07.2018 06:00:00 21,0 11,0 8 4 N 10
11.07.2018 05:00:00 - - - - - -
11.07.2018 04:00:00 - - - - - -
11.07.2018 03:00:00 - - - - - -
11.07.2018 02:00:00 - - - - - -
11.07.2018 01:00:00 - - - - - -
11.07.2018 00:00:00 23,0 16,0 4 2 E 10
10.07.2018 23:00:00 23,0 18,0 4 2 - 10
10.07.2018 22:00:00 24,0 19,0 5 3 E 10
10.07.2018 21:00:00 24,0 20,0 4 2 S 10
10.07.2018 20:00:00 25,0 20,0 5 3 S 10
10.07.2018 19:00:00 26,0 20,0 11 6 SSW 10
10.07.2018 18:00:00 27,0 20,0 9 5 SSW 10

tt = temperature
td = dewpoint
ff = wind speed
dd = wind direction
vv = visibility

Next stations